createdAt,value
2023-02-14T00:00:12.576Z,83.90
2023-02-14T00:02:41.690Z,83.90
2023-02-14T00:05:10.395Z,83.80
2023-02-14T00:07:38.590Z,83.80
2023-02-14T00:10:07.643Z,83.90
2023-02-14T00:12:36.117Z,83.90
2023-02-14T00:15:23.087Z,83.80
2023-02-14T00:17:51.978Z,83.70
2023-02-14T00:20:20.032Z,83.50
2023-02-14T00:22:48.025Z,83.50
2023-02-14T00:25:17.109Z,83.50
2023-02-14T00:27:45.315Z,83.30
2023-02-14T00:30:16.119Z,83.30
2023-02-14T00:32:44.472Z,83.10
2023-02-14T00:35:12.823Z,83.30
2023-02-14T00:37:42.326Z,83.30
2023-02-14T00:40:10.975Z,83.30
2023-02-14T00:42:40.845Z,83.50
2023-02-14T00:45:09.480Z,83.60
2023-02-14T00:47:39.394Z,83.70
2023-02-14T00:50:07.792Z,83.80
2023-02-14T00:52:35.791Z,83.90
2023-02-14T00:55:04.018Z,83.90
2023-02-14T00:57:32.141Z,83.80
2023-02-14T01:00:00.226Z,83.80
2023-02-14T01:02:28.393Z,83.90
2023-02-14T01:04:58.215Z,84.00
2023-02-14T01:07:26.832Z,84.10
2023-02-14T01:09:54.784Z,84.00
2023-02-14T01:12:23.185Z,83.90
2023-02-14T01:14:51.796Z,84.00
2023-02-14T01:17:20.670Z,84.00
2023-02-14T01:19:49.202Z,84.00
2023-02-14T01:22:19.029Z,83.90
2023-02-14T01:24:47.494Z,83.90
2023-02-14T01:27:18.064Z,83.90
2023-02-14T01:29:46.873Z,83.90
2023-02-14T01:32:15.211Z,83.80
2023-02-14T01:34:44.359Z,83.80
2023-02-14T01:37:12.853Z,83.70
2023-02-14T01:39:42.451Z,83.60
2023-02-14T01:42:11.975Z,83.60
2023-02-14T01:45:03.276Z,83.60
2023-02-14T01:47:35.025Z,83.70
2023-02-14T01:50:05.938Z,83.90
2023-02-14T01:52:36.401Z,84.00
2023-02-14T01:55:08.670Z,84.10
2023-02-14T01:57:41.571Z,84.10
2023-02-14T02:00:29.136Z,84.20
2023-02-14T02:02:58.394Z,84.10
2023-02-14T02:05:27.750Z,84.10
2023-02-14T02:08:12.200Z,84.10
2023-02-14T02:10:47.438Z,84.00
2023-02-14T02:13:29.561Z,84.00
2023-02-14T02:16:09.666Z,84.10
2023-02-14T02:18:51.770Z,84.10
2023-02-14T02:24:16.209Z,84.10
2023-02-14T02:26:48.821Z,84.20
2023-02-14T02:35:20.646Z,84.30
2023-02-14T02:41:10.133Z,84.20
2023-02-14T02:43:47.583Z,84.20
2023-02-14T02:46:40.156Z,84.20
2023-02-14T03:00:58.341Z,84.40
2023-02-14T03:09:50.221Z,84.60
2023-02-14T03:15:09.701Z,84.70
2023-02-14T03:20:52.940Z,84.30
2023-02-14T03:23:26.072Z,84.40
2023-02-14T03:26:04.649Z,84.50
2023-02-14T03:45:48.465Z,84.30
2023-02-14T03:48:26.868Z,84.20
2023-02-14T03:51:19.988Z,84.10
2023-02-14T03:56:40.053Z,83.90
2023-02-14T04:02:18.042Z,84.20
2023-02-14T04:07:54.951Z,84.20
2023-02-14T04:10:27.784Z,84.30
2023-02-14T04:16:32.199Z,84.40
2023-02-14T04:19:23.097Z,84.40
2023-02-14T04:33:28.207Z,84.30
2023-02-14T04:35:57.546Z,84.40
2023-02-14T04:38:37.742Z,84.40
2023-02-14T04:41:30.260Z,84.30
2023-02-14T04:44:01.774Z,84.30
2023-02-14T04:49:35.173Z,84.20
2023-02-14T04:52:25.307Z,84.40
2023-02-14T04:54:56.809Z,84.40
2023-02-14T05:00:47.225Z,84.30
2023-02-14T05:03:32.383Z,84.20
2023-02-14T05:06:03.494Z,84.20
2023-02-14T05:08:36.521Z,84.30
2023-02-14T05:11:09.206Z,84.30
2023-02-14T05:13:39.074Z,84.20
2023-02-14T05:16:07.979Z,84.30
2023-02-14T05:21:33.461Z,84.30
2023-02-14T05:24:07.514Z,84.30
2023-02-14T05:29:26.789Z,84.40
2023-02-14T05:31:59.689Z,84.40
2023-02-14T05:34:37.857Z,84.30
2023-02-14T05:54:55.023Z,84.40
2023-02-14T05:57:32.517Z,84.30
2023-02-14T06:03:05.271Z,84.20
2023-02-14T06:17:23.392Z,84.10
2023-02-14T06:19:58.004Z,84.10
2023-02-14T06:22:34.869Z,84.00
2023-02-14T06:25:09.117Z,83.90
2023-02-14T06:28:01.881Z,83.90
2023-02-14T06:33:17.355Z,84.00
2023-02-14T06:35:50.256Z,84.00
2023-02-14T06:47:16.751Z,84.00
2023-02-14T07:01:17.150Z,84.40
2023-02-14T07:03:52.118Z,84.40
2023-02-14T07:09:19.846Z,84.30
2023-02-14T07:11:55.209Z,84.20
2023-02-14T07:14:30.104Z,84.30
2023-02-14T07:17:04.011Z,84.20
2023-02-14T07:22:32.598Z,84.00
2023-02-14T07:25:02.143Z,84.00
2023-02-14T07:27:35.268Z,84.10
2023-02-14T07:30:04.647Z,84.10
2023-02-14T07:32:38.977Z,84.20
2023-02-14T07:35:09.079Z,84.10
2023-02-14T07:37:39.557Z,83.90
2023-02-14T07:40:14.716Z,83.80
2023-02-14T07:42:54.402Z,83.80
2023-02-14T07:45:29.053Z,84.10
2023-02-14T07:48:05.883Z,83.90
2023-02-14T07:50:34.369Z,83.90
2023-02-14T07:53:03.633Z,83.90
2023-02-14T07:55:32.204Z,83.90
2023-02-14T07:58:01.903Z,83.80
2023-02-14T08:00:31.854Z,83.70
2023-02-14T08:03:02.109Z,83.90
2023-02-14T08:05:30.745Z,83.70
2023-02-14T08:08:00.403Z,83.80
2023-02-14T08:10:29.764Z,83.80
2023-02-14T08:13:03.161Z,83.90
2023-02-14T08:15:50.064Z,84.10
2023-02-14T08:18:21.105Z,83.80
2023-02-14T08:20:52.430Z,83.70
2023-02-14T08:23:21.616Z,83.80
2023-02-14T08:25:51.069Z,83.70
2023-02-14T08:28:23.053Z,83.60
2023-02-14T08:30:53.591Z,83.70
2023-02-14T08:33:23.984Z,83.80
2023-02-14T08:35:53.114Z,84.10
2023-02-14T08:38:21.784Z,83.80
2023-02-14T08:40:50.569Z,83.80
2023-02-14T08:43:19.348Z,83.70
2023-02-14T08:45:51.102Z,83.60
2023-02-14T08:48:20.321Z,83.70
2023-02-14T08:50:52.573Z,83.60
2023-02-14T08:53:24.721Z,83.60
2023-02-14T08:55:54.528Z,83.60
2023-02-14T08:58:23.925Z,83.40
2023-02-14T09:00:53.605Z,82.70
2023-02-14T09:06:23.576Z,83.00
2023-02-14T09:08:55.833Z,83.00
2023-02-14T09:14:28.742Z,82.30
2023-02-14T09:17:05.879Z,81.40
2023-02-14T09:19:38.870Z,81.60
2023-02-14T09:22:11.594Z,81.80
2023-02-14T09:24:42.769Z,82.30
2023-02-14T09:30:04.247Z,82.10
2023-02-14T09:32:41.170Z,82.30
2023-02-14T09:35:18.483Z,81.80
2023-02-14T09:37:54.045Z,81.90
2023-02-14T09:40:26.534Z,81.70
2023-02-14T09:43:01.767Z,81.60
2023-02-14T09:48:37.493Z,81.00
2023-02-14T09:51:16.349Z,79.40
2023-02-14T09:56:51.280Z,80.70
2023-02-14T10:05:03.623Z,80.30
2023-02-14T10:10:23.677Z,80.60
2023-02-14T10:13:00.665Z,80.80
2023-02-14T10:15:32.030Z,79.50
2023-02-14T10:18:09.377Z,78.70
2023-02-14T10:20:43.844Z,78.30
2023-02-14T10:23:27.400Z,78.60
2023-02-14T10:26:00.669Z,77.60
2023-02-14T10:28:36.394Z,76.40
2023-02-14T10:31:21.545Z,76.70
2023-02-14T10:33:57.100Z,76.60
2023-02-14T10:36:38.095Z,76.30
2023-02-14T10:39:20.814Z,76.90
2023-02-14T10:41:53.605Z,77.10
2023-02-14T10:44:28.404Z,76.70
2023-02-14T10:47:04.085Z,76.50
2023-02-14T10:49:37.232Z,76.40
2023-02-14T10:52:12.827Z,76.00
2023-02-14T10:54:44.357Z,74.90
2023-02-14T10:57:15.994Z,75.00
2023-02-14T10:59:50.774Z,74.70
2023-02-14T11:02:23.704Z,74.90
2023-02-14T11:04:55.428Z,73.90
2023-02-14T11:07:26.733Z,74.00
2023-02-14T11:09:55.150Z,74.00
2023-02-14T11:12:37.573Z,74.20
2023-02-14T11:15:23.804Z,74.30
2023-02-14T11:18:01.114Z,73.60
2023-02-14T11:20:31.727Z,73.00
2023-02-14T11:23:00.246Z,73.80
2023-02-14T11:25:30.887Z,73.60
2023-02-14T11:28:00.592Z,73.90
2023-02-14T11:30:33.895Z,74.90
2023-02-14T11:33:04.588Z,74.40
2023-02-14T11:35:35.633Z,74.60
2023-02-14T11:38:05.274Z,74.70
2023-02-14T11:40:41.536Z,74.50
2023-02-14T11:43:20.387Z,73.90
2023-02-14T11:45:53.507Z,73.40
2023-02-14T11:48:39.488Z,72.70
2023-02-14T11:51:14.174Z,72.80
2023-02-14T11:53:50.699Z,72.30
2023-02-14T11:56:20.287Z,72.20
2023-02-14T11:58:52.152Z,72.20
2023-02-14T12:01:29.242Z,71.60
2023-02-14T12:04:01.569Z,71.80
2023-02-14T12:06:34.833Z,72.30
2023-02-14T12:09:12.953Z,72.20
2023-02-14T12:11:41.834Z,72.30
2023-02-14T12:14:21.962Z,72.30
2023-02-14T12:19:44.156Z,72.30
2023-02-14T12:22:17.264Z,72.30
2023-02-14T12:24:52.212Z,72.10
2023-02-14T12:27:25.017Z,71.30
2023-02-14T12:29:55.742Z,71.00
2023-02-14T12:32:26.343Z,70.70
2023-02-14T12:34:58.656Z,70.70
2023-02-14T12:37:38.839Z,71.20
2023-02-14T12:40:15.877Z,71.80
2023-02-14T12:42:57.138Z,71.50
2023-02-14T12:45:30.874Z,70.80
2023-02-14T12:48:05.800Z,70.20
2023-02-14T12:50:42.433Z,70.50
2023-02-14T12:53:29.017Z,70.10
2023-02-14T12:56:01.830Z,69.80
2023-02-14T12:58:38.433Z,69.70
2023-02-14T13:01:28.534Z,68.80
2023-02-14T13:04:24.749Z,68.10
2023-02-14T13:06:57.594Z,67.30
2023-02-14T13:09:31.555Z,67.90
2023-02-14T13:12:04.357Z,66.30
2023-02-14T13:14:42.256Z,66.10
2023-02-14T13:17:17.631Z,66.10
2023-02-14T13:19:52.678Z,66.40
2023-02-14T13:22:27.470Z,66.10
2023-02-14T13:24:58.419Z,66.20
2023-02-14T13:27:29.291Z,66.40
2023-02-14T13:30:05.355Z,65.00
2023-02-14T13:32:40.801Z,63.80
2023-02-14T13:35:17.487Z,59.20
2023-02-14T13:37:47.686Z,56.10
2023-02-14T13:40:18.551Z,55.00
2023-02-14T13:42:55.044Z,54.20
2023-02-14T13:45:43.014Z,55.40
2023-02-14T13:48:16.548Z,56.10
2023-02-14T13:50:53.051Z,57.50
2023-02-14T13:56:00.802Z,59.40
2023-02-14T13:58:29.920Z,61.50
2023-02-14T14:00:59.277Z,60.50
2023-02-14T14:03:51.834Z,59.00
2023-02-14T14:09:32.525Z,54.30
2023-02-14T14:12:01.032Z,52.10
2023-02-14T14:17:21.094Z,48.80
2023-02-14T14:25:41.364Z,46.40
2023-02-14T14:28:11.445Z,46.70
2023-02-14T14:30:43.700Z,47.10
2023-02-14T14:33:18.536Z,48.40
2023-02-14T14:35:56.759Z,48.20
2023-02-14T14:50:00.995Z,46.70
2023-02-14T14:55:06.736Z,46.20
2023-02-14T14:57:41.034Z,47.70
2023-02-14T15:00:21.474Z,47.80
2023-02-14T15:05:26.166Z,47.10
2023-02-14T15:08:02.610Z,48.20
2023-02-14T15:10:33.008Z,48.30
2023-02-14T15:13:21.154Z,48.30
2023-02-14T15:15:51.381Z,48.00
2023-02-14T15:18:21.146Z,47.80
2023-02-14T15:20:50.897Z,48.40
2023-02-14T15:25:54.930Z,48.40
2023-02-14T15:28:33.108Z,49.60
2023-02-14T15:31:03.714Z,49.90
2023-02-14T15:33:34.203Z,51.10
2023-02-14T15:38:43.219Z,52.00
2023-02-14T15:41:11.914Z,52.30
2023-02-14T15:43:43.279Z,53.70
2023-02-14T15:46:17.583Z,55.30
2023-02-14T15:48:46.750Z,57.90
2023-02-14T15:51:18.126Z,61.40
2023-02-14T15:53:50.574Z,65.70
2023-02-14T15:56:22.477Z,69.10
2023-02-14T15:58:57.798Z,71.30
2023-02-14T16:01:28.516Z,72.40
2023-02-14T16:03:58.567Z,72.90
2023-02-14T16:06:39.866Z,73.30
2023-02-14T16:09:09.717Z,74.00
2023-02-14T16:11:38.669Z,74.70
2023-02-14T16:14:27.835Z,75.50
2023-02-14T16:17:04.275Z,76.10
2023-02-14T16:19:33.841Z,76.80
2023-02-14T16:22:02.576Z,77.50
2023-02-14T16:24:31.781Z,78.20
2023-02-14T16:27:07.695Z,78.70
2023-02-14T16:29:41.211Z,79.20
2023-02-14T16:32:18.585Z,79.50
2023-02-14T16:34:48.516Z,80.00
2023-02-14T16:37:21.910Z,80.40
2023-02-14T16:39:51.327Z,80.60
2023-02-14T16:42:19.903Z,80.80
2023-02-14T16:44:49.129Z,81.00
2023-02-14T16:47:19.474Z,81.30
2023-02-14T16:49:51.051Z,81.50
2023-02-14T16:52:24.569Z,81.60
2023-02-14T16:54:54.856Z,81.70
2023-02-14T16:57:27.646Z,81.90
2023-02-14T16:59:57.176Z,81.90
2023-02-14T17:02:28.339Z,82.00
2023-02-14T17:04:57.059Z,82.00
2023-02-14T17:07:25.521Z,82.20
2023-02-14T17:09:56.308Z,82.30
2023-02-14T17:12:27.318Z,82.30
2023-02-14T17:15:01.272Z,82.30
2023-02-14T17:17:33.294Z,82.30
2023-02-14T17:20:02.365Z,82.30
2023-02-14T17:22:31.064Z,82.10
2023-02-14T17:24:59.580Z,82.30
2023-02-14T17:27:27.696Z,82.40
2023-02-14T17:29:57.205Z,82.50
2023-02-14T17:32:25.685Z,82.70
2023-02-14T17:34:56.498Z,83.00
2023-02-14T17:37:25.468Z,83.00
2023-02-14T17:39:54.343Z,83.10
2023-02-14T17:42:25.310Z,83.30
2023-02-14T17:44:57.870Z,83.40
2023-02-14T17:47:26.531Z,83.40
2023-02-14T17:49:58.782Z,83.30
2023-02-14T17:52:31.295Z,83.30
2023-02-14T17:54:59.985Z,83.30
2023-02-14T17:57:28.632Z,83.20
2023-02-14T17:59:58.299Z,83.20
2023-02-14T18:02:29.430Z,83.10
2023-02-14T18:05:00.562Z,83.10
2023-02-14T18:07:29.792Z,83.10
2023-02-14T18:09:58.381Z,83.10
2023-02-14T18:12:26.720Z,82.90
2023-02-14T18:14:56.580Z,83.00
2023-02-14T18:17:26.995Z,83.10
2023-02-14T18:19:55.419Z,83.10
2023-02-14T18:22:49.858Z,83.00
2023-02-14T18:25:19.712Z,83.10
2023-02-14T18:27:48.959Z,83.00
2023-02-14T18:30:17.421Z,82.80
2023-02-14T18:32:46.805Z,83.00
2023-02-14T18:35:15.598Z,83.20
2023-02-14T18:37:45.972Z,83.20
2023-02-14T18:40:20.355Z,83.40
2023-02-14T18:42:50.878Z,83.60
2023-02-14T18:45:20.771Z,83.80
2023-02-14T18:47:49.496Z,84.00
2023-02-14T18:50:24.544Z,84.00
2023-02-14T18:52:53.340Z,84.00
2023-02-14T18:55:22.147Z,84.10
2023-02-14T18:57:51.994Z,84.00
2023-02-14T19:00:21.963Z,84.00
2023-02-14T19:02:51.447Z,84.00
2023-02-14T19:05:19.980Z,83.90
2023-02-14T19:07:49.102Z,83.70
2023-02-14T19:10:18.005Z,83.70
2023-02-14T19:12:47.780Z,83.50
2023-02-14T19:15:19.421Z,83.50
2023-02-14T19:17:48.797Z,83.50
2023-02-14T19:20:18.015Z,83.40
2023-02-14T19:22:48.402Z,83.30
2023-02-14T19:25:19.763Z,83.30
2023-02-14T19:27:49.412Z,83.10
2023-02-14T19:30:20.195Z,82.70
2023-02-14T19:32:49.575Z,82.80
2023-02-14T19:35:17.865Z,83.10
2023-02-14T19:37:47.891Z,82.90
2023-02-14T19:40:17.623Z,83.00
2023-02-14T19:42:50.255Z,82.80
2023-02-14T19:45:19.952Z,83.00
2023-02-14T19:47:51.964Z,83.00
2023-02-14T19:50:24.123Z,82.90
2023-02-14T19:52:54.047Z,82.70
2023-02-14T19:55:26.457Z,82.60
2023-02-14T19:58:00.268Z,82.50
2023-02-14T20:00:34.093Z,82.40
2023-02-14T20:03:04.909Z,82.40
2023-02-14T20:05:38.553Z,82.40
2023-02-14T20:08:09.866Z,82.20
2023-02-14T20:10:39.235Z,82.10
2023-02-14T20:13:13.232Z,82.20
2023-02-14T20:15:47.342Z,81.90
2023-02-14T20:18:18.188Z,81.90
2023-02-14T20:21:06.634Z,81.90
2023-02-14T20:23:39.456Z,82.00
2023-02-14T20:26:16.057Z,82.00
2023-02-14T20:28:49.018Z,81.80
2023-02-14T20:31:20.868Z,81.80
2023-02-14T20:34:08.959Z,81.80
2023-02-14T20:36:38.713Z,81.70
2023-02-14T20:39:11.260Z,81.40
2023-02-14T20:41:41.070Z,81.30
2023-02-14T20:44:10.737Z,81.20
2023-02-14T20:46:47.131Z,81.20
2023-02-14T20:51:58.884Z,80.80
2023-02-14T20:54:34.769Z,81.00
2023-02-14T20:57:07.080Z,81.10
2023-02-14T20:59:38.137Z,81.20
2023-02-14T21:02:11.768Z,81.20
2023-02-14T21:04:42.473Z,81.50
2023-02-14T21:07:15.991Z,81.70
2023-02-14T21:09:47.029Z,81.90
2023-02-14T21:12:17.897Z,82.10
2023-02-14T21:14:48.890Z,82.20
2023-02-14T21:17:21.200Z,82.40
2023-02-14T21:22:57.911Z,82.70
2023-02-14T21:28:07.135Z,82.70
2023-02-14T21:33:10.188Z,82.90
2023-02-14T21:38:55.428Z,83.00
2023-02-14T21:41:33.719Z,83.00
2023-02-14T21:47:07.603Z,83.00
2023-02-14T21:52:48.541Z,82.70
2023-02-14T21:55:18.708Z,82.60
2023-02-14T21:57:50.660Z,82.40
2023-02-14T22:00:25.107Z,82.30
2023-02-14T22:08:43.498Z,82.00
2023-02-14T22:11:35.585Z,82.10
2023-02-14T22:23:02.945Z,82.40
2023-02-14T22:25:44.078Z,82.40
2023-02-14T22:28:13.281Z,82.60
2023-02-14T22:30:43.864Z,82.50
2023-02-14T22:33:12.197Z,82.60
2023-02-14T22:35:43.025Z,82.40
2023-02-14T22:38:12.885Z,82.60
2023-02-14T22:43:43.075Z,83.00
2023-02-14T22:46:14.487Z,82.90
2023-02-14T22:48:42.836Z,82.90
2023-02-14T22:51:12.360Z,82.80
2023-02-14T22:53:40.574Z,82.90
2023-02-14T22:56:14.616Z,83.00
2023-02-14T22:58:48.152Z,83.00
2023-02-14T23:01:19.970Z,83.00
2023-02-14T23:04:00.313Z,83.10
2023-02-14T23:06:30.984Z,83.00
2023-02-14T23:09:02.932Z,83.10
2023-02-14T23:11:33.782Z,82.90
2023-02-14T23:14:19.891Z,83.00
2023-02-14T23:17:05.707Z,83.10
2023-02-14T23:19:53.254Z,83.00
2023-02-14T23:22:23.869Z,83.00
2023-02-14T23:24:53.816Z,83.00
2023-02-14T23:27:24.419Z,82.90
2023-02-14T23:29:55.534Z,83.00
2023-02-14T23:32:24.233Z,83.00
2023-02-14T23:34:53.926Z,82.90
2023-02-14T23:37:22.592Z,82.80
2023-02-14T23:39:54.489Z,82.70
2023-02-14T23:42:28.991Z,82.70
2023-02-14T23:45:20.967Z,82.60
2023-02-14T23:47:50.050Z,82.80
2023-02-14T23:53:26.120Z,82.50
2023-02-14T23:55:58.877Z,82.50
2023-02-14T23:58:44.984Z,82.60
